createdAt,value
2023-01-25T00:00:13.355Z,100589.01
2023-01-25T00:02:42.108Z,100589.33
2023-01-25T00:05:11.886Z,100589.77
2023-01-25T00:07:40.373Z,100587.48
2023-01-25T00:10:09.805Z,100587.73
2023-01-25T00:12:38.517Z,100585.04
2023-01-25T00:15:08.274Z,100592.04
2023-01-25T00:17:37.681Z,100597.15
2023-01-25T00:20:07.130Z,100595.83
2023-01-25T00:22:35.703Z,100594.80
2023-01-25T00:25:04.395Z,100598.17
2023-01-25T00:27:33.542Z,100596.99
2023-01-25T00:30:02.073Z,100594.05
2023-01-25T00:33:06.828Z,100598.02
2023-01-25T00:35:35.385Z,100587.29
2023-01-25T00:38:03.915Z,100596.02
2023-01-25T00:40:33.075Z,100595.74
2023-01-25T00:43:01.744Z,100595.41
2023-01-25T00:45:30.611Z,100592.25
2023-01-25T00:47:59.266Z,100591.20
2023-01-25T00:50:27.801Z,100587.02
2023-01-25T00:52:56.293Z,100590.25
2023-01-25T00:55:24.803Z,100586.70
2023-01-25T00:57:53.591Z,100582.48
2023-01-25T01:00:22.241Z,100583.01
2023-01-25T01:02:53.974Z,100578.42
2023-01-25T01:05:23.241Z,100575.36
2023-01-25T01:07:51.903Z,100571.39
2023-01-25T01:10:21.027Z,100570.54
2023-01-25T01:12:51.586Z,100563.52
2023-01-25T01:15:20.419Z,100559.38
2023-01-25T01:17:49.197Z,100556.50
2023-01-25T01:20:17.768Z,100554.31
2023-01-25T01:22:46.322Z,100549.96
2023-01-25T01:25:14.777Z,100548.98
2023-01-25T01:27:43.203Z,100547.85
2023-01-25T01:30:11.975Z,100548.69
2023-01-25T01:32:40.605Z,100553.34
2023-01-25T01:35:10.070Z,100552.59
2023-01-25T01:37:42.554Z,100552.53
2023-01-25T01:40:14.754Z,100547.30
2023-01-25T01:43:04.605Z,100543.85
2023-01-25T01:45:43.792Z,100531.70
2023-01-25T01:48:36.479Z,100527.87
2023-01-25T01:51:13.003Z,100525.21
2023-01-25T01:53:44.075Z,100527.09
2023-01-25T01:56:15.225Z,100524.15
2023-01-25T01:58:44.225Z,100521.44
2023-01-25T02:01:20.501Z,100512.29
2023-01-25T02:03:49.368Z,100515.44
2023-01-25T02:06:40.973Z,100514.89
2023-01-25T02:09:09.710Z,100505.05
2023-01-25T02:11:39.252Z,100508.42
2023-01-25T02:14:07.661Z,100509.55
2023-01-25T02:16:37.892Z,100511.52
2023-01-25T02:19:06.841Z,100509.79
2023-01-25T02:21:40.243Z,100512.36
2023-01-25T02:24:15.932Z,100510.48
2023-01-25T02:26:46.127Z,100507.86
2023-01-25T02:29:14.590Z,100508.36
2023-01-25T02:31:47.373Z,100506.17
2023-01-25T02:34:16.032Z,100498.13
2023-01-25T02:36:44.951Z,100496.73
2023-01-25T02:39:17.789Z,100494.59
2023-01-25T02:41:50.491Z,100488.85
2023-01-25T02:44:24.638Z,100490.41
2023-01-25T02:46:53.195Z,100486.03
2023-01-25T02:49:21.919Z,100487.82
2023-01-25T02:51:56.217Z,100487.25
2023-01-25T02:54:26.439Z,100484.73
2023-01-25T02:56:55.539Z,100484.23
2023-01-25T02:59:25.138Z,100484.45
2023-01-25T03:01:56.589Z,100480.71
2023-01-25T03:04:25.489Z,100479.11
2023-01-25T03:06:54.295Z,100477.69
2023-01-25T03:09:22.949Z,100479.77
2023-01-25T03:11:51.837Z,100476.13
2023-01-25T03:14:22.789Z,100475.79
2023-01-25T03:16:51.859Z,100476.36
2023-01-25T03:19:22.797Z,100478.54
2023-01-25T03:21:51.559Z,100476.48
2023-01-25T03:24:20.712Z,100476.38
2023-01-25T03:27:08.835Z,100475.70
2023-01-25T03:29:45.781Z,100470.23
2023-01-25T03:32:34.484Z,100477.27
2023-01-25T03:35:07.122Z,100481.88
2023-01-25T03:37:37.057Z,100483.39
2023-01-25T03:40:06.547Z,100479.00
2023-01-25T03:42:37.752Z,100475.49
2023-01-25T03:45:07.220Z,100470.09
2023-01-25T03:47:36.792Z,100464.15
2023-01-25T03:50:07.729Z,100459.98
2023-01-25T03:52:46.982Z,100461.60
2023-01-25T03:55:21.846Z,100452.50
2023-01-25T03:57:52.578Z,100455.84
2023-01-25T04:00:22.272Z,100456.06
2023-01-25T04:02:51.080Z,100460.05
2023-01-25T04:05:20.780Z,100462.25
2023-01-25T04:07:49.547Z,100463.14
2023-01-25T04:10:20.776Z,100459.05
2023-01-25T04:12:49.997Z,100457.75
2023-01-25T04:15:21.061Z,100455.02
2023-01-25T04:17:49.852Z,100456.38
2023-01-25T04:20:23.629Z,100448.84
2023-01-25T04:22:52.925Z,100451.73
2023-01-25T04:25:22.259Z,100448.41
2023-01-25T04:27:53.627Z,100448.29
2023-01-25T04:30:22.102Z,100446.09
2023-01-25T04:32:51.757Z,100453.50
2023-01-25T04:35:24.438Z,100451.55
2023-01-25T04:37:56.948Z,100447.87
2023-01-25T04:40:27.991Z,100447.56
2023-01-25T04:42:57.432Z,100447.73
2023-01-25T04:45:26.041Z,100448.06
2023-01-25T04:47:57.803Z,100443.59
2023-01-25T04:50:27.554Z,100446.39
2023-01-25T04:52:56.797Z,100449.77
2023-01-25T04:55:25.537Z,100455.71
2023-01-25T04:57:55.112Z,100452.08
2023-01-25T05:00:24.277Z,100453.69
2023-01-25T05:02:52.883Z,100455.65
2023-01-25T05:05:21.787Z,100451.38
2023-01-25T05:07:50.713Z,100450.91
2023-01-25T05:10:19.121Z,100448.54
2023-01-25T05:13:21.257Z,100441.23
2023-01-25T05:15:50.853Z,100448.55
2023-01-25T05:18:19.331Z,100449.33
2023-01-25T05:20:57.532Z,100449.91
2023-01-25T05:23:28.889Z,100445.27
2023-01-25T05:26:16.550Z,100455.54
2023-01-25T05:28:45.093Z,100462.82
2023-01-25T05:31:31.148Z,100472.33
2023-01-25T05:33:59.863Z,100478.91
2023-01-25T05:36:28.362Z,100484.92
2023-01-25T05:38:57.924Z,100488.46
2023-01-25T05:41:26.725Z,100489.92
2023-01-25T05:43:55.573Z,100493.00
2023-01-25T05:46:28.036Z,100499.95
2023-01-25T05:48:57.802Z,100500.27
2023-01-25T05:51:27.595Z,100499.68
2023-01-25T05:53:56.726Z,100496.99
2023-01-25T05:56:25.889Z,100497.07
2023-01-25T05:58:55.202Z,100484.52
2023-01-25T06:01:23.902Z,100477.55
2023-01-25T06:03:54.133Z,100469.85
2023-01-25T06:06:24.407Z,100465.02
2023-01-25T06:08:54.373Z,100465.41
2023-01-25T06:11:23.918Z,100458.95
2023-01-25T06:13:55.167Z,100459.97
2023-01-25T06:16:24.168Z,100459.83
2023-01-25T06:40:45.454Z,100411.11
2023-01-25T06:43:12.476Z,100385.42
2023-01-25T06:45:39.611Z,100393.04
2023-01-25T06:48:06.762Z,100396.09
2023-01-25T06:50:35.907Z,100397.39
2023-01-25T06:53:03.637Z,100396.42
2023-01-25T06:55:32.012Z,100396.73
2023-01-25T06:58:00.391Z,100394.51
2023-01-25T07:00:27.744Z,100389.55
2023-01-25T07:02:55.162Z,100382.59
2023-01-25T07:05:23.693Z,100372.54
2023-01-25T07:07:50.838Z,100363.59
2023-01-25T07:10:18.186Z,100345.77
2023-01-25T07:12:45.648Z,100338.63
2023-01-25T07:15:12.831Z,100322.48
2023-01-25T07:17:40.578Z,100314.27
2023-01-25T07:20:08.527Z,100312.67
2023-01-25T07:22:36.498Z,100308.33
2023-01-25T07:25:04.671Z,100304.89
2023-01-25T07:27:36.733Z,100308.39
2023-01-25T07:30:04.755Z,100303.96
2023-01-25T07:32:32.323Z,100307.40
2023-01-25T07:34:59.621Z,100309.11
2023-01-25T07:37:27.457Z,100310.10
2023-01-25T07:39:57.812Z,100313.52
2023-01-25T07:42:25.014Z,100316.54
2023-01-25T07:45:01.730Z,100304.94
2023-01-25T07:47:29.095Z,100302.86
2023-01-25T07:49:57.467Z,100300.83
2023-01-25T07:52:24.991Z,100296.93
2023-01-25T07:54:52.352Z,100306.36
2023-01-25T07:57:23.724Z,100312.68
2023-01-25T07:59:52.410Z,100330.40
2023-01-25T08:02:19.969Z,100355.26
2023-01-25T08:04:47.223Z,100381.92
2023-01-25T08:07:14.619Z,100416.15
2023-01-25T08:09:45.021Z,100471.86
2023-01-25T08:12:12.501Z,100521.73
2023-01-25T08:14:40.369Z,100579.86
2023-01-25T08:17:08.235Z,100624.64
2023-01-25T08:19:35.385Z,100665.88
2023-01-25T08:22:02.842Z,100712.98
2023-01-25T08:24:30.129Z,100767.31
2023-01-25T08:26:57.405Z,100807.27
2023-01-25T08:29:27.473Z,100843.95
2023-01-25T08:31:54.955Z,100872.91
2023-01-25T08:34:22.278Z,100905.23
2023-01-25T08:39:21.899Z,100915.48
2023-01-25T08:41:49.158Z,100926.54
2023-01-25T08:44:16.821Z,100941.23
2023-01-25T08:46:45.811Z,100970.67
2023-01-25T08:49:13.366Z,100994.67
2023-01-25T08:51:41.444Z,101011.08
2023-01-25T08:54:12.086Z,101034.52
2023-01-25T08:56:40.240Z,101045.93
2023-01-25T08:59:10.467Z,101036.55
2023-01-25T09:01:37.930Z,101035.80
2023-01-25T09:04:05.213Z,101032.89
2023-01-25T09:06:35.709Z,101040.17
2023-01-25T09:09:04.391Z,101043.90
2023-01-25T09:11:33.204Z,101056.07
2023-01-25T09:14:00.347Z,101072.90
2023-01-25T09:16:30.125Z,101078.60
2023-01-25T09:18:59.608Z,101088.40
2023-01-25T09:21:27.206Z,101094.52
2023-01-25T09:24:05.847Z,101095.35
2023-01-25T09:26:36.057Z,101107.23
2023-01-25T09:29:03.408Z,101118.16
2023-01-25T09:31:43.691Z,101132.29
2023-01-25T09:34:36.321Z,101162.54
2023-01-25T09:37:03.656Z,101192.41
2023-01-25T09:39:33.236Z,101206.89
2023-01-25T09:42:20.377Z,101215.05
2023-01-25T09:44:53.670Z,101229.36
2023-01-25T09:47:29.148Z,101235.76
2023-01-25T09:50:23.317Z,101237.89
2023-01-25T09:53:12.682Z,101245.31
2023-01-25T09:55:40.035Z,101265.35
2023-01-25T09:58:13.156Z,101284.98
2023-01-25T10:01:00.654Z,101299.16
2023-01-25T10:03:38.732Z,101306.02
2023-01-25T10:06:05.968Z,101304.27
2023-01-25T10:08:52.589Z,101312.55
2023-01-25T10:11:24.836Z,101333.42
2023-01-25T10:13:52.008Z,101342.42
2023-01-25T10:16:28.956Z,101359.77
2023-01-25T10:18:56.883Z,101361.27
2023-01-25T10:26:29.510Z,101419.78
2023-01-25T10:29:30.128Z,101437.54
2023-01-25T10:32:55.307Z,101449.65
2023-01-25T10:35:35.406Z,101453.37
2023-01-25T10:38:30.244Z,101464.75
2023-01-25T10:41:07.304Z,101469.13
2023-01-25T10:43:34.748Z,101467.77
2023-01-25T10:46:25.685Z,101480.02
2023-01-25T10:48:53.337Z,101480.79
2023-01-25T10:51:31.778Z,101470.33
2023-01-25T10:54:03.395Z,101459.71
2023-01-25T10:56:34.185Z,101463.48
2023-01-25T10:59:22.881Z,101468.10
2023-01-25T11:01:50.356Z,101470.39
2023-01-25T11:04:34.799Z,101467.20
2023-01-25T11:07:04.873Z,101450.21
2023-01-25T11:09:33.151Z,101438.89
2023-01-25T11:12:00.358Z,101446.45
2023-01-25T11:14:28.739Z,101459.34
2023-01-25T11:16:56.116Z,101473.70
2023-01-25T11:19:26.928Z,101490.23
2023-01-25T11:21:54.600Z,101487.75
2023-01-25T11:24:21.993Z,101495.55
2023-01-25T11:26:49.501Z,101495.42
2023-01-25T11:29:16.666Z,101495.93
2023-01-25T11:31:48.046Z,101504.45
2023-01-25T11:34:15.995Z,101509.50
2023-01-25T11:36:51.825Z,101531.66
2023-01-25T11:39:21.791Z,101531.93
2023-01-25T11:41:52.241Z,101536.39
2023-01-25T11:44:32.845Z,101532.11
2023-01-25T11:47:23.057Z,101519.68
2023-01-25T11:50:10.900Z,101503.90
2023-01-25T11:52:58.231Z,101500.16
2023-01-25T11:55:29.198Z,101500.38
2023-01-25T11:58:15.374Z,101503.14
2023-01-25T12:00:45.047Z,101512.11
2023-01-25T12:03:12.053Z,101510.28
2023-01-25T12:05:44.561Z,101518.55
2023-01-25T12:08:16.201Z,101524.27
2023-01-25T12:10:47.366Z,101529.96
2023-01-25T12:13:20.858Z,101524.88
2023-01-25T12:15:58.215Z,101516.77
2023-01-25T12:18:33.554Z,101498.33
2023-01-25T12:21:05.267Z,101482.30
2023-01-25T12:23:56.225Z,101460.55
2023-01-25T12:26:44.385Z,101451.78
2023-01-25T12:29:17.953Z,101449.36
2023-01-25T12:31:50.151Z,101465.23
2023-01-25T12:34:23.505Z,101487.98
2023-01-25T12:36:52.033Z,101511.98
2023-01-25T12:39:27.163Z,101548.58
2023-01-25T12:42:04.266Z,101588.48
2023-01-25T12:44:34.933Z,101593.65
2023-01-25T12:47:05.079Z,101593.43
2023-01-25T12:50:05.104Z,101608.55
2023-01-25T12:52:33.459Z,101624.50
2023-01-25T12:55:01.977Z,101625.97
2023-01-25T12:57:35.710Z,101626.70
2023-01-25T13:00:09.589Z,101621.10
2023-01-25T13:02:43.431Z,101620.87
2023-01-25T13:05:27.030Z,101634.33
2023-01-25T13:07:56.990Z,101648.70
2023-01-25T13:10:31.357Z,101659.12
2023-01-25T13:13:00.336Z,101673.60
2023-01-25T13:15:41.776Z,101683.05
2023-01-25T13:18:27.949Z,101685.73
2023-01-25T13:20:56.003Z,101694.89
2023-01-25T13:23:31.268Z,101700.29
2023-01-25T13:26:17.653Z,101704.17
2023-01-25T13:28:47.833Z,101714.20
2023-01-25T13:31:49.975Z,101709.02
2023-01-25T13:34:39.847Z,101716.38
2023-01-25T13:37:16.834Z,101714.29
2023-01-25T13:39:46.420Z,101722.73
2023-01-25T13:42:19.518Z,101730.86
2023-01-25T13:45:02.957Z,101722.64
2023-01-25T13:47:38.920Z,101718.33
2023-01-25T13:50:21.101Z,101714.06
2023-01-25T13:53:14.991Z,101708.45
2023-01-25T13:55:43.317Z,101705.86
2023-01-25T13:58:11.250Z,101703.80
2023-01-25T14:00:47.449Z,101696.00
2023-01-25T14:03:16.329Z,101692.70
2023-01-25T14:05:50.461Z,101693.05
2023-01-25T14:08:18.617Z,101697.30
2023-01-25T14:11:19.400Z,101692.64
2023-01-25T14:13:56.495Z,101688.04
2023-01-25T14:16:23.521Z,101683.56
2023-01-25T14:18:50.910Z,101678.49
2023-01-25T14:21:19.182Z,101674.73
2023-01-25T14:23:48.331Z,101672.54
2023-01-25T14:26:17.342Z,101669.76
2023-01-25T14:28:51.250Z,101659.14
2023-01-25T14:31:31.717Z,101648.08
2023-01-25T14:33:59.212Z,101647.52
2023-01-25T14:36:27.370Z,101646.16
2023-01-25T14:38:54.712Z,101642.63
2023-01-25T14:42:00.517Z,101635.16
2023-01-25T14:44:28.853Z,101570.68
2023-01-25T14:47:15.979Z,101554.59
2023-01-25T14:49:43.331Z,101548.31
2023-01-25T14:52:12.287Z,101543.67
2023-01-25T14:54:47.666Z,101532.33
2023-01-25T14:57:27.251Z,101524.91
2023-01-25T14:59:55.360Z,101516.36
2023-01-25T15:02:27.139Z,101510.02
2023-01-25T15:05:15.169Z,101491.39
2023-01-25T15:07:47.449Z,101464.36
2023-01-25T15:10:18.808Z,101445.92
2023-01-25T15:12:58.475Z,101429.02
2023-01-25T15:15:35.830Z,101404.45
2023-01-25T15:18:03.723Z,101391.04
2023-01-25T15:20:38.349Z,101377.45
2023-01-25T15:23:08.648Z,101369.15
2023-01-25T15:25:49.707Z,101355.70
2023-01-25T15:28:17.061Z,101336.20
2023-01-25T15:30:44.119Z,101324.32
2023-01-25T15:33:17.216Z,101315.53
2023-01-25T15:35:44.878Z,101300.89
2023-01-25T15:38:12.435Z,101283.47
2023-01-25T15:40:40.825Z,101213.48
2023-01-25T15:43:11.709Z,101170.41
2023-01-25T15:45:39.683Z,101163.16
2023-01-25T15:48:09.949Z,101151.92
2023-01-25T15:50:37.097Z,101110.42
2023-01-25T15:53:04.011Z,101078.33
2023-01-25T15:55:32.111Z,101049.29
2023-01-25T15:57:59.670Z,101030.83
2023-01-25T16:00:27.026Z,101024.23
2023-01-25T16:02:54.174Z,101019.83
2023-01-25T16:05:21.637Z,101022.77
2023-01-25T16:07:48.780Z,101019.95
2023-01-25T16:10:23.058Z,101014.42
2023-01-25T16:12:50.947Z,101014.80
2023-01-25T16:15:17.954Z,101010.89
2023-01-25T16:17:45.061Z,101009.33
2023-01-25T16:20:19.273Z,101011.87
2023-01-25T16:22:47.248Z,101013.62
2023-01-25T16:25:14.699Z,101021.19
2023-01-25T16:27:41.781Z,101021.08
2023-01-25T16:30:13.109Z,101020.61
2023-01-25T16:32:40.449Z,101011.41
2023-01-25T16:35:08.519Z,101002.23
2023-01-25T16:37:35.873Z,100992.45
2023-01-25T16:40:03.555Z,100979.89
2023-01-25T16:42:31.606Z,100973.16
2023-01-25T16:44:58.858Z,100960.27
2023-01-25T16:47:27.828Z,100953.14
2023-01-25T16:49:55.275Z,100946.70
2023-01-25T16:52:22.782Z,100943.18
2023-01-25T16:54:50.001Z,100941.03
2023-01-25T16:57:20.861Z,100939.78
2023-01-25T16:59:48.256Z,100933.55
2023-01-25T17:02:15.225Z,100932.45
2023-01-25T17:04:42.335Z,100923.80
2023-01-25T17:07:11.784Z,100909.31
2023-01-25T17:09:39.096Z,100896.02
2023-01-25T17:12:09.158Z,100885.83
2023-01-25T17:14:36.424Z,100882.02
2023-01-25T17:17:04.978Z,100876.13
2023-01-25T17:19:32.164Z,100867.99
2023-01-25T17:21:59.622Z,100867.23
2023-01-25T17:24:27.213Z,100852.74
2023-01-25T17:26:57.555Z,100841.16
2023-01-25T17:29:24.843Z,100830.99
2023-01-25T17:31:51.959Z,100819.57
2023-01-25T17:34:19.409Z,100810.09
2023-01-25T17:36:47.129Z,100797.13
2023-01-25T17:39:14.994Z,100796.77
2023-01-25T17:41:42.857Z,100791.70
2023-01-25T17:44:11.655Z,100786.33
2023-01-25T17:46:39.367Z,100784.98
2023-01-25T17:49:07.187Z,100779.70
2023-01-25T17:51:36.072Z,100773.39
2023-01-25T17:54:03.991Z,100768.98
2023-01-25T17:56:32.907Z,100764.13
2023-01-25T17:59:04.357Z,100761.77
2023-01-25T18:01:33.999Z,100756.75
2023-01-25T18:04:01.341Z,100757.17
2023-01-25T18:06:30.203Z,100755.85
2023-01-25T18:08:59.486Z,100751.29
2023-01-25T18:11:27.497Z,100747.73
2023-01-25T18:13:57.414Z,100742.95
2023-01-25T18:16:25.385Z,100740.64
2023-01-25T18:18:53.331Z,100736.92
2023-01-25T18:21:24.680Z,100734.64
2023-01-25T18:23:53.721Z,100734.40
2023-01-25T18:26:22.551Z,100730.52
2023-01-25T18:28:52.017Z,100731.49
2023-01-25T18:31:20.623Z,100725.77
2023-01-25T22:09:07.268Z,100175.55
2023-01-25T22:11:37.168Z,100136.55
2023-01-25T22:14:09.871Z,100140.02
2023-01-25T22:16:39.718Z,100142.74
2023-01-25T22:19:08.859Z,100142.73
2023-01-25T22:21:38.067Z,100137.05
2023-01-25T22:24:10.891Z,100137.74
2023-01-25T22:27:05.451Z,100132.65
2023-01-25T22:29:35.005Z,100123.30
2023-01-25T22:32:05.872Z,100123.05
2023-01-25T22:34:42.851Z,100120.67
2023-01-25T22:37:12.460Z,100120.07
2023-01-25T22:39:41.757Z,100114.40
2023-01-25T22:42:10.538Z,100113.02
2023-01-25T22:44:39.133Z,100110.48
2023-01-25T22:47:09.043Z,100109.45
2023-01-25T22:49:37.849Z,100105.98
2023-01-25T22:52:06.519Z,100100.98
2023-01-25T22:54:38.494Z,100099.99
2023-01-25T22:57:07.388Z,100097.98
2023-01-25T22:59:35.977Z,100096.63
2023-01-25T23:02:05.409Z,100093.56
2023-01-25T23:04:36.699Z,100089.47
2023-01-25T23:07:13.433Z,100087.63
2023-01-25T23:09:45.050Z,100088.14
2023-01-25T23:12:15.409Z,100091.97
2023-01-25T23:14:54.395Z,100091.27
2023-01-25T23:17:42.878Z,100094.59
2023-01-25T23:20:13.461Z,100096.17
2023-01-25T23:22:42.355Z,100096.33
2023-01-25T23:25:12.010Z,100098.50
2023-01-25T23:27:41.291Z,100096.51
2023-01-25T23:30:11.150Z,100094.38
2023-01-25T23:32:40.382Z,100093.13
2023-01-25T23:35:09.676Z,100090.29
2023-01-25T23:37:38.468Z,100086.42
2023-01-25T23:40:09.581Z,100087.08
2023-01-25T23:42:39.015Z,100085.44
2023-01-25T23:45:11.689Z,100082.79
2023-01-25T23:47:40.373Z,100084.15
2023-01-25T23:50:10.558Z,100073.52
2023-01-25T23:52:39.286Z,100065.11
2023-01-25T23:55:09.245Z,100063.04
2023-01-25T23:57:38.290Z,100054.56
